Kezdőlap
METAR-TAF:

METAR-TAF

Repülőterek :

Oujda, Marokkó

földrajzi szélesség: 34-47N, földrajzi hosszúság: 001-56W, magasság: 468 m

Jelenlegi meteorológiai megfigyelések

A jelentés 25 perccel ezelõtt készült, 13:30 UTC
Északi szél 16 kt, észak-északnyugati és északkeleti között változik
Hőmérséklet 24°C
Páratartalom 29%
Légköri nyomás 1008 hPa
Látótávolság 10 km, vagy több
felhőtlen 1500 m magasságban, és nincs gomolyfelhõ

METAR: GMFO 251330Z 36016KT 340V040 CAVOK 24/05 Q1008 NOSIG

Idő: 14:55 (13:55 UTC)

Előrejelzés

A jelentés 2 órával és 55 perccel ezelõtt készült, 11:00 UTC
Az előrejelzés 25-én 12 óra UTC és 26-én 18 óra UTC között érvényes
Észak-északnyugati szél 15 kt
Látótávolság 10 km, vagy több
felhőtlen 1500 m magasságban, és nincs gomolyfelhõ
25-én 19 óra UTC és 26-én 12 óra UTC között ideiglenes
Dél-délnyugati szél 7 kt

TAF: GMFO 251100Z 2512/2618 33015KT CAVOK TEMPO 2519/2612 20007KT

Meteorológiai megfigyelések és előrejelzések több, mint 4000 repülőtéren (METAR és TAF jelentéseket).

A térképen piros és sárga pontok jelzik az elérhető meteorológiai állomásokat.

Mozgassa az egeret a pont fölött, hogy megjelenjen az állomás neve.

Azután kattintson az időjárási megfigyelések és előrejelzések megtekintéséhez.

A térkép megváltoztatása: kattintson a fekete keresztel jelölt zöld gombra ráközelítéshez, a vonallal jelölt zöld gombra távolításhoz, vagy a zöld nyilakra a szomszédos térképek eléréséhez.


METAR-TAF: